createdAt,value
2023-04-03T00:01:28.488Z,4.76
2023-04-03T00:03:57.922Z,4.56
2023-04-03T00:06:26.019Z,4.72
2023-04-03T00:08:53.902Z,5.00
2023-04-03T00:11:21.686Z,4.69
2023-04-03T00:13:50.806Z,4.76
2023-04-03T00:16:20.126Z,4.91
2023-04-03T00:18:50.177Z,4.91
2023-04-03T00:21:19.400Z,4.93
2023-04-03T00:23:46.437Z,4.86
2023-04-03T00:26:13.710Z,4.77
2023-04-03T00:28:43.822Z,4.76
2023-04-03T00:31:14.586Z,4.83
2023-04-03T00:33:44.223Z,4.72
2023-04-03T00:36:14.156Z,4.80
2023-04-03T00:38:43.519Z,4.54
2023-04-03T00:41:10.666Z,4.60
2023-04-03T00:43:37.679Z,4.47
2023-04-03T00:46:05.562Z,4.61
2023-04-03T00:48:49.999Z,4.48
2023-04-03T00:51:25.371Z,4.36
2023-04-03T00:54:00.069Z,4.35
2023-04-03T00:56:31.416Z,4.42
2023-04-03T00:59:19.216Z,4.41
2023-04-03T01:01:46.361Z,4.49
2023-04-03T01:04:38.171Z,4.52
2023-04-03T01:07:18.499Z,4.43
2023-04-03T01:09:48.385Z,4.49
2023-04-03T01:12:30.338Z,4.29
2023-04-03T01:15:22.306Z,4.34
2023-04-03T01:17:52.509Z,4.36
2023-04-03T01:20:36.798Z,4.36
2023-04-03T01:23:12.912Z,4.27
2023-04-03T01:25:53.173Z,4.24
2023-04-03T01:28:34.099Z,4.27
2023-04-03T01:31:18.765Z,4.21
2023-04-03T01:33:46.066Z,4.31
2023-04-03T01:36:22.941Z,4.18
2023-04-03T01:38:52.901Z,4.15
2023-04-03T01:41:22.026Z,4.23
2023-04-03T01:43:54.320Z,4.04
2023-04-03T01:46:24.312Z,4.08
2023-04-03T01:48:51.431Z,4.22
2023-04-03T01:51:20.911Z,4.21
2023-04-03T01:53:47.950Z,4.23
2023-04-03T01:56:17.584Z,4.19
2023-04-03T01:58:44.544Z,4.21
2023-04-03T02:01:11.587Z,4.27
2023-04-03T02:03:38.742Z,4.27
2023-04-03T02:06:06.650Z,4.12
2023-04-03T02:08:38.279Z,4.15
2023-04-03T02:11:05.313Z,4.19
2023-04-03T02:13:32.367Z,4.24
2023-04-03T02:16:00.144Z,4.12
2023-04-03T02:18:27.181Z,4.01
2023-04-03T02:20:54.132Z,4.08
2023-04-03T02:23:23.361Z,4.08
2023-04-03T02:25:50.380Z,4.08
2023-04-03T02:28:20.546Z,4.07
2023-04-03T02:30:50.189Z,4.13
2023-04-03T02:33:17.297Z,3.97
2023-04-03T02:35:44.218Z,3.87
2023-04-03T02:38:13.835Z,3.77
2023-04-03T02:40:41.050Z,3.73
2023-04-03T02:43:08.134Z,3.75
2023-04-03T02:45:35.188Z,3.74
2023-04-03T02:48:02.419Z,3.60
2023-04-03T02:50:29.493Z,3.71
2023-04-03T02:53:01.001Z,3.43
2023-04-03T02:55:30.324Z,3.70
2023-04-03T02:57:57.261Z,3.73
2023-04-03T03:00:24.294Z,3.75
2023-04-03T03:02:51.311Z,3.65
2023-04-03T03:05:18.655Z,3.73
2023-04-03T03:07:45.900Z,3.78
2023-04-03T03:10:15.879Z,3.79
2023-04-03T03:12:45.205Z,3.84
2023-04-03T03:15:12.788Z,3.85
2023-04-03T03:17:39.918Z,3.78
2023-04-03T03:20:08.515Z,3.62
2023-04-03T03:22:36.118Z,3.62
2023-04-03T03:25:04.404Z,3.72
2023-04-03T03:27:31.876Z,3.62
2023-04-03T03:30:02.587Z,3.74
2023-04-03T03:32:29.571Z,3.78
2023-04-03T03:34:59.014Z,3.66
2023-04-03T03:37:25.899Z,3.71
2023-04-03T03:39:52.929Z,3.74
2023-04-03T03:42:20.082Z,3.83
2023-04-03T03:44:49.412Z,3.85
2023-04-03T03:47:18.640Z,3.77
2023-04-03T03:49:45.761Z,3.74
2023-04-03T03:52:15.150Z,3.78
2023-04-03T03:54:45.510Z,3.81
2023-04-03T03:57:12.913Z,3.79
2023-04-03T03:59:41.990Z,3.87
2023-04-03T04:02:11.777Z,3.70
2023-04-03T04:04:38.807Z,3.68
2023-04-03T04:07:06.174Z,3.52
2023-04-03T04:09:37.842Z,3.51
2023-04-03T04:12:07.973Z,3.52
2023-04-03T04:14:35.026Z,3.51
2023-04-03T04:17:03.512Z,3.48
2023-04-03T04:19:34.394Z,3.46
2023-04-03T04:22:07.273Z,3.31
2023-04-03T04:24:34.740Z,3.28
2023-04-03T04:27:01.621Z,3.43
2023-04-03T04:29:28.596Z,3.42
2023-04-03T04:31:58.277Z,3.44
2023-04-03T04:34:27.472Z,3.44
2023-04-03T04:36:54.793Z,3.30
2023-04-03T04:39:21.942Z,3.37
2023-04-03T04:41:51.603Z,3.39
2023-04-03T04:44:18.824Z,3.52
2023-04-03T04:46:48.510Z,3.54
2023-04-03T04:49:15.733Z,3.61
2023-04-03T04:51:52.001Z,3.65
2023-04-03T04:54:24.893Z,3.23
2023-04-03T04:56:52.102Z,3.59
2023-04-03T04:59:22.142Z,3.58
2023-04-03T05:01:49.394Z,3.69
2023-04-03T05:04:16.846Z,3.53
2023-04-03T05:06:43.980Z,3.61
2023-04-03T05:09:11.397Z,3.62
2023-04-03T05:11:38.441Z,3.54
2023-04-03T05:14:07.714Z,3.52
2023-04-03T05:16:35.053Z,3.71
2023-04-03T05:19:04.640Z,3.90
2023-04-03T05:21:33.502Z,3.94
2023-04-03T05:24:04.088Z,4.01
2023-04-03T05:26:33.033Z,3.98
2023-04-03T05:29:00.281Z,4.03
2023-04-03T05:31:30.747Z,4.11
2023-04-03T05:34:00.452Z,4.14
2023-04-03T05:36:27.786Z,4.10
2023-04-03T05:38:57.316Z,4.19
2023-04-03T05:41:25.051Z,4.13
2023-04-03T05:43:52.120Z,4.22
2023-04-03T05:46:24.082Z,4.43
2023-04-03T05:48:51.430Z,4.56
2023-04-03T05:51:39.921Z,4.59
2023-04-03T05:54:25.302Z,4.42
2023-04-03T05:56:55.740Z,4.58
2023-04-03T05:59:25.333Z,4.69
2023-04-03T06:01:52.340Z,4.77
2023-04-03T06:04:20.206Z,4.88
2023-04-03T06:06:58.704Z,4.64
2023-04-03T06:09:30.093Z,5.01
2023-04-03T06:12:00.775Z,5.13
2023-04-03T06:14:32.861Z,5.11
2023-04-03T06:17:00.705Z,5.16
2023-04-03T06:19:30.201Z,5.24
2023-04-03T06:21:57.615Z,5.36
2023-04-03T06:24:26.240Z,5.35
2023-04-03T06:26:56.514Z,5.41
2023-04-03T06:29:28.629Z,5.78
2023-04-03T06:31:55.895Z,5.94
2023-04-03T06:34:25.065Z,6.14
2023-04-03T06:36:51.963Z,6.44
2023-04-03T06:39:24.687Z,6.51
2023-04-03T06:41:54.862Z,6.67
2023-04-03T06:44:24.166Z,7.22
2023-04-03T06:46:52.745Z,7.76
2023-04-03T06:49:19.877Z,8.24
2023-04-03T06:51:47.079Z,8.83
2023-04-03T06:54:14.145Z,9.11
2023-04-03T06:56:43.457Z,9.68
2023-04-03T06:59:16.566Z,10.59
2023-04-03T07:01:43.770Z,11.24
2023-04-03T07:04:13.666Z,11.98
2023-04-03T07:06:45.697Z,12.04
2023-04-03T07:09:12.797Z,12.63
2023-04-03T07:11:42.541Z,12.97
2023-04-03T07:14:09.698Z,12.74
2023-04-03T07:16:38.241Z,13.45
2023-04-03T07:19:06.502Z,13.78
2023-04-03T07:21:33.650Z,13.96
2023-04-03T07:24:00.654Z,14.83
2023-04-03T07:26:27.946Z,15.78
2023-04-03T07:28:58.787Z,15.64
2023-04-03T07:31:30.650Z,16.75
2023-04-03T07:34:00.225Z,17.29
2023-04-03T07:36:30.630Z,17.72
2023-04-03T07:38:57.706Z,18.59
2023-04-03T07:41:24.646Z,18.55
2023-04-03T07:43:51.979Z,19.95
2023-04-03T07:46:19.019Z,20.03
2023-04-03T07:48:46.149Z,19.14
2023-04-03T07:51:14.003Z,18.93
2023-04-03T07:53:41.238Z,19.73
2023-04-03T07:56:09.370Z,20.39
2023-04-03T07:58:39.204Z,21.43
2023-04-03T08:01:07.222Z,21.87
2023-04-03T08:03:34.307Z,21.45
2023-04-03T08:06:15.768Z,21.96
2023-04-03T08:08:46.789Z,21.58
2023-04-03T08:11:13.887Z,20.92
2023-04-03T08:13:42.619Z,21.86
2023-04-03T08:16:17.924Z,22.29
2023-04-03T08:18:47.455Z,23.01
2023-04-03T08:21:16.921Z,23.58
2023-04-03T08:23:44.056Z,21.55
2023-04-03T08:26:21.311Z,21.81
2023-04-03T08:28:49.470Z,20.66
2023-04-03T08:31:22.259Z,20.03
2023-04-03T08:33:52.636Z,20.69
2023-04-03T08:36:29.226Z,22.07
2023-04-03T08:38:58.120Z,21.31
2023-04-03T08:41:44.797Z,22.12
2023-04-03T08:44:43.351Z,21.47
2023-04-03T08:47:34.929Z,21.44
2023-04-03T08:50:06.438Z,22.23
2023-04-03T08:52:38.508Z,22.32
2023-04-03T08:55:28.377Z,23.30
2023-04-03T08:58:27.556Z,24.76
2023-04-03T09:01:18.943Z,24.36
2023-04-03T09:03:46.218Z,24.45
2023-04-03T09:06:18.783Z,25.18
2023-04-03T09:09:03.191Z,24.23
2023-04-03T09:11:48.367Z,24.96
2023-04-03T09:14:40.833Z,24.36
2023-04-03T09:17:11.416Z,25.42
2023-04-03T09:20:03.396Z,23.56
2023-04-03T09:22:45.722Z,22.61
2023-04-03T09:25:24.299Z,23.06
2023-04-03T09:27:52.358Z,24.27
2023-04-03T09:30:27.648Z,23.68
2023-04-03T09:32:58.447Z,25.02
2023-04-03T09:35:44.665Z,26.08
2023-04-03T09:38:20.364Z,23.96
2023-04-03T09:41:05.060Z,22.66
2023-04-03T09:43:35.444Z,22.61
2023-04-03T09:46:31.396Z,24.22
2023-04-03T09:49:09.972Z,25.93
2023-04-03T09:51:41.891Z,27.55
2023-04-03T09:54:38.662Z,27.64
2023-04-03T09:57:14.801Z,26.55
2023-04-03T09:59:59.323Z,26.52
2023-04-03T10:02:39.311Z,25.83
2023-04-03T10:05:40.941Z,27.17
2023-04-03T10:08:17.529Z,26.65
2023-04-03T10:10:50.140Z,26.10
2023-04-03T10:13:25.602Z,27.39
2023-04-03T10:16:28.497Z,27.86
2023-04-03T10:19:14.744Z,28.58
2023-04-03T10:21:53.716Z,28.67
2023-04-03T10:24:37.817Z,27.76
2023-04-03T10:27:23.078Z,27.36
2023-04-03T10:30:06.108Z,25.54
2023-04-03T10:32:41.937Z,22.91
2023-04-03T10:35:33.803Z,24.38
2023-04-03T10:38:37.865Z,22.58
2023-04-03T10:42:16.062Z,20.54
2023-04-03T10:44:59.904Z,21.47
2023-04-03T10:47:47.930Z,20.28
2023-04-03T10:50:33.095Z,18.29
2023-04-03T10:53:20.910Z,16.94
2023-04-03T10:56:14.844Z,18.69
2023-04-03T10:58:46.377Z,21.24
2023-04-03T11:01:25.821Z,23.10
2023-04-03T11:04:02.104Z,23.24
2023-04-03T11:07:23.190Z,25.10
2023-04-03T11:09:58.288Z,23.99
2023-04-03T11:12:54.255Z,21.65
2023-04-03T11:15:23.719Z,23.39
2023-04-03T11:18:11.762Z,22.55
2023-04-03T11:20:48.633Z,20.77
2023-04-03T11:23:46.017Z,17.58
2023-04-03T11:26:26.585Z,15.79
2023-04-03T11:29:01.632Z,15.52
2023-04-03T11:31:59.285Z,15.33
2023-04-03T11:34:44.363Z,16.57
2023-04-03T11:37:39.627Z,21.25
2023-04-03T11:40:31.989Z,20.13
2023-04-03T11:43:23.770Z,18.28
2023-04-03T11:46:08.436Z,16.46
2023-04-03T11:48:35.647Z,15.61
2023-04-03T11:51:28.624Z,15.09
2023-04-03T11:53:57.792Z,15.26
2023-04-03T11:56:24.721Z,17.82
2023-04-03T11:59:26.731Z,22.22
2023-04-03T12:01:55.965Z,24.30
2023-04-03T12:04:26.592Z,22.22
2023-04-03T12:07:20.801Z,19.59
2023-04-03T12:09:47.652Z,20.16
2023-04-03T12:12:31.394Z,20.78
2023-04-03T12:15:20.610Z,18.66
2023-04-03T12:17:48.568Z,17.27
2023-04-03T12:20:50.236Z,16.10
2023-04-03T12:23:34.627Z,15.69
2023-04-03T12:26:22.809Z,18.92
2023-04-03T12:28:52.593Z,20.89
2023-04-03T12:31:27.597Z,19.06
2023-04-03T12:34:06.756Z,16.75
2023-04-03T12:36:43.081Z,15.09
2023-04-03T12:39:57.076Z,14.07
2023-04-03T12:43:15.803Z,14.00
2023-04-03T12:45:53.637Z,14.06
2023-04-03T12:48:27.289Z,13.90
2023-04-03T12:50:55.999Z,14.60
2023-04-03T12:53:31.399Z,16.34
2023-04-03T12:56:32.187Z,18.05
2023-04-03T12:59:21.624Z,16.28
2023-04-03T13:02:02.488Z,15.38
2023-04-03T13:04:32.412Z,15.82
2023-04-03T13:07:02.766Z,18.98
2023-04-03T13:09:33.569Z,21.68
2023-04-03T13:12:18.990Z,23.72
2023-04-03T13:15:14.723Z,23.64
2023-04-03T13:17:45.154Z,25.18
2023-04-03T13:20:23.651Z,25.93
2023-04-03T13:22:58.658Z,26.60
2023-04-03T13:25:31.596Z,24.64
2023-04-03T13:28:12.667Z,20.54
2023-04-03T13:30:56.984Z,19.71
2023-04-03T13:33:29.974Z,18.61
2023-04-03T13:36:05.403Z,18.31
2023-04-03T13:38:39.488Z,17.74
2023-04-03T13:41:27.431Z,19.51
2023-04-03T13:44:03.392Z,21.04
2023-04-03T13:46:37.944Z,22.00
2023-04-03T13:49:33.178Z,22.45
2023-04-03T13:52:07.998Z,22.14
2023-04-03T13:54:40.465Z,22.60
2023-04-03T13:57:16.964Z,21.21
2023-04-03T13:59:44.857Z,20.56
2023-04-03T14:02:33.669Z,19.46
2023-04-03T14:05:05.002Z,19.40
2023-04-03T14:07:35.344Z,20.49
2023-04-03T14:10:02.706Z,20.90
2023-04-03T14:12:40.238Z,21.04
2023-04-03T14:15:21.270Z,20.43
2023-04-03T14:17:48.439Z,19.70
2023-04-03T14:20:22.836Z,20.38
2023-04-03T14:22:50.160Z,19.10
2023-04-03T14:25:19.125Z,19.22
2023-04-03T14:27:50.034Z,19.28
2023-04-03T14:30:24.366Z,19.31
2023-04-03T14:32:51.546Z,18.75
2023-04-03T14:35:22.124Z,17.37
2023-04-03T14:37:54.768Z,16.10
2023-04-03T14:40:29.187Z,15.61
2023-04-03T14:43:00.800Z,15.74
2023-04-03T14:45:27.840Z,16.54
2023-04-03T14:47:57.759Z,17.07
2023-04-03T14:50:30.216Z,16.52
2023-04-03T14:53:00.166Z,16.42
2023-04-03T14:55:28.670Z,16.06
2023-04-03T14:57:58.432Z,16.21
2023-04-03T15:00:27.854Z,15.32
2023-04-03T15:02:55.423Z,14.13
2023-04-03T15:05:25.315Z,13.91
2023-04-03T15:07:57.300Z,14.22
2023-04-03T15:10:32.382Z,14.16
2023-04-03T15:12:59.524Z,14.13
2023-04-03T15:15:31.101Z,14.21
2023-04-03T15:17:59.348Z,14.19
2023-04-03T15:20:34.346Z,14.46
2023-04-03T15:23:02.445Z,14.10
2023-04-03T15:25:32.627Z,13.18
2023-04-03T15:28:02.780Z,12.99
2023-04-03T15:30:29.864Z,12.80
2023-04-03T15:32:59.449Z,12.94
2023-04-03T15:35:30.357Z,12.68
2023-04-03T15:37:57.497Z,12.74
2023-04-03T15:40:24.569Z,12.44
2023-04-03T15:42:53.245Z,12.67
2023-04-03T15:45:22.362Z,12.48
2023-04-03T15:47:49.771Z,12.53
2023-04-03T15:50:16.854Z,12.86
2023-04-03T15:52:44.439Z,12.84
2023-04-03T15:55:11.442Z,12.50
2023-04-03T16:00:11.640Z,11.89
2023-04-03T16:02:38.908Z,11.94
2023-04-03T16:05:06.850Z,11.70
2023-04-03T16:07:36.506Z,11.67
2023-04-03T16:10:07.680Z,11.70
2023-04-03T16:12:34.839Z,11.14
2023-04-03T16:15:02.097Z,11.31
2023-04-03T16:17:29.575Z,11.22
2023-04-03T16:19:56.994Z,11.24
2023-04-03T16:22:30.924Z,10.75
2023-04-03T16:24:58.195Z,10.83
2023-04-03T16:27:28.677Z,10.99
2023-04-03T16:29:58.713Z,10.68
2023-04-03T16:32:30.919Z,10.78
2023-04-03T16:34:59.319Z,10.81
2023-04-03T16:37:27.244Z,10.51
2023-04-03T16:39:55.935Z,10.59
2023-04-03T16:42:22.941Z,10.40
2023-04-03T16:44:49.914Z,10.40
2023-04-03T16:47:20.217Z,10.23
2023-04-03T16:49:54.133Z,10.13
2023-04-03T16:52:23.893Z,10.23
2023-04-03T16:54:52.704Z,10.14
2023-04-03T16:57:21.526Z,10.00
2023-04-03T16:59:51.599Z,10.15
2023-04-03T17:02:22.646Z,9.98
2023-04-03T17:04:52.859Z,9.83
2023-04-03T17:07:24.464Z,9.84
2023-04-03T17:09:54.937Z,9.67
2023-04-03T17:12:27.118Z,9.65
2023-04-03T17:14:57.200Z,9.67
2023-04-03T17:17:29.526Z,9.64
2023-04-03T17:19:57.175Z,9.60
2023-04-03T17:22:27.097Z,9.50
2023-04-03T17:24:54.119Z,9.33
2023-04-03T17:27:21.325Z,9.05
2023-04-03T17:29:50.586Z,9.38
2023-04-03T17:32:17.913Z,9.22
2023-04-03T17:34:48.356Z,9.48
2023-04-03T17:37:18.086Z,9.29
2023-04-03T17:39:46.894Z,8.95
2023-04-03T17:42:13.941Z,8.86
2023-04-03T17:44:43.257Z,8.97
2023-04-03T17:47:10.736Z,9.06
2023-04-03T17:49:40.261Z,9.11
2023-04-03T17:52:07.213Z,8.98
2023-04-03T17:54:34.641Z,8.77
2023-04-03T17:57:04.740Z,8.69
2023-04-03T17:59:34.731Z,8.54
2023-04-03T18:02:04.201Z,8.58
2023-04-03T18:04:33.229Z,8.36
2023-04-03T18:07:02.097Z,8.11
2023-04-03T18:09:36.441Z,8.25
2023-04-03T18:12:07.340Z,8.26
2023-04-03T18:14:36.542Z,8.21
2023-04-03T18:17:03.944Z,8.10
2023-04-03T18:19:30.976Z,8.21
2023-04-03T18:22:06.699Z,8.32
2023-04-03T18:24:37.152Z,8.19
2023-04-03T18:27:18.807Z,8.08
2023-04-03T18:29:53.101Z,7.95
2023-04-03T18:32:24.263Z,7.99
2023-04-03T18:34:51.550Z,7.96
2023-04-03T18:37:19.121Z,8.08
2023-04-03T18:39:48.273Z,7.99
2023-04-03T18:42:20.231Z,7.87
2023-04-03T18:44:55.155Z,7.59
2023-04-03T18:47:22.216Z,7.64
2023-04-03T18:49:49.293Z,7.57
2023-04-03T18:52:16.274Z,7.53
2023-04-03T18:54:43.362Z,7.43
2023-04-03T18:57:12.848Z,7.44
2023-04-03T18:59:44.396Z,7.54
2023-04-03T19:02:14.225Z,7.43
2023-04-03T19:04:44.185Z,7.42
2023-04-03T19:07:11.546Z,7.56
2023-04-03T19:09:40.937Z,7.41
2023-04-03T19:12:08.301Z,7.32
2023-04-03T19:14:35.572Z,7.25
2023-04-03T19:17:04.165Z,7.29
2023-04-03T19:19:33.489Z,7.13
2023-04-03T19:22:00.699Z,7.26
2023-04-03T19:24:27.999Z,7.27
2023-04-03T19:26:57.488Z,7.27
2023-04-03T19:29:27.466Z,7.10
2023-04-03T19:31:54.729Z,7.24
2023-04-03T19:34:22.003Z,7.09
2023-04-03T19:36:52.276Z,7.06
2023-04-03T19:39:19.313Z,6.92
2023-04-03T19:41:47.088Z,6.79
2023-04-03T19:44:16.560Z,6.97
2023-04-03T19:46:51.353Z,6.82
2023-04-03T19:49:20.020Z,6.92
2023-04-03T19:51:49.416Z,6.94
2023-04-03T19:54:19.600Z,6.94
2023-04-03T19:56:49.084Z,6.88
2023-04-03T19:59:19.089Z,6.77
2023-04-03T20:01:46.446Z,6.60
2023-04-03T20:04:16.571Z,6.62
2023-04-03T20:06:43.583Z,6.64
2023-04-03T20:09:10.974Z,6.40
2023-04-03T20:11:40.377Z,6.43
2023-04-03T20:14:07.734Z,6.34
2023-04-03T20:16:38.067Z,6.31
2023-04-03T20:19:07.849Z,6.29
2023-04-03T20:21:35.080Z,6.36
2023-04-03T20:24:04.401Z,6.26
2023-04-03T20:26:42.256Z,6.12
2023-04-03T20:29:12.183Z,6.04
2023-04-03T20:31:42.233Z,6.11
2023-04-03T20:34:11.930Z,6.20
2023-04-03T20:36:39.111Z,6.15
2023-04-03T20:39:06.407Z,6.20
2023-04-03T20:41:37.875Z,6.14
2023-04-03T20:44:05.734Z,6.20
2023-04-03T20:46:48.827Z,5.89
2023-04-03T20:49:23.248Z,6.00
2023-04-03T20:51:53.010Z,6.05
2023-04-03T20:54:20.481Z,5.82
2023-04-03T20:56:49.951Z,5.82
2023-04-03T20:59:18.870Z,6.05
2023-04-03T21:01:47.573Z,6.13
2023-04-03T21:04:30.406Z,6.10
2023-04-03T21:07:54.563Z,5.91
2023-04-03T21:11:23.564Z,5.83
2023-04-03T21:14:48.592Z,5.63
2023-04-03T21:17:15.824Z,5.88
2023-04-03T21:19:51.481Z,5.75
2023-04-03T21:22:20.408Z,5.73
2023-04-03T21:24:48.427Z,5.92
2023-04-03T21:27:16.029Z,5.78
2023-04-03T21:29:46.348Z,5.84
2023-04-03T21:32:15.789Z,5.81
2023-04-03T21:34:42.919Z,5.89
2023-04-03T21:37:11.925Z,5.79
2023-04-03T21:39:38.963Z,5.81
2023-04-03T21:42:07.458Z,5.68
2023-04-03T21:44:37.183Z,5.50
2023-04-03T21:47:05.066Z,5.67
2023-04-03T21:49:34.360Z,5.54
2023-04-03T21:52:03.636Z,5.57
2023-04-03T21:54:30.705Z,5.57
2023-04-03T21:56:57.742Z,5.65
2023-04-03T21:59:27.389Z,5.59
2023-04-03T22:01:54.547Z,5.71
2023-04-03T22:04:26.706Z,5.57
2023-04-03T22:06:53.699Z,5.61
2023-04-03T22:09:20.816Z,5.45
2023-04-03T22:11:52.627Z,5.32
2023-04-03T22:14:20.367Z,5.15
2023-04-03T22:16:47.632Z,5.09
2023-04-03T22:19:14.823Z,5.05
2023-04-03T22:21:43.859Z,5.05
2023-04-03T22:24:10.798Z,5.03
2023-04-03T22:26:38.905Z,4.84
2023-04-03T22:29:06.127Z,5.06
2023-04-03T22:31:33.354Z,5.08
2023-04-03T22:34:04.243Z,5.09
2023-04-03T22:36:31.302Z,5.04
2023-04-03T22:38:58.757Z,5.00
2023-04-03T22:41:28.084Z,4.98
2023-04-03T22:43:59.107Z,5.02
2023-04-03T22:46:29.051Z,4.79
2023-04-03T22:48:56.152Z,4.76
2023-04-03T22:51:25.493Z,4.72
2023-04-03T22:53:52.473Z,4.75
2023-04-03T22:56:23.944Z,4.62
2023-04-03T22:58:52.872Z,4.66
2023-04-03T23:01:20.355Z,4.72
2023-04-03T23:03:47.351Z,4.70
2023-04-03T23:06:16.874Z,4.78
2023-04-03T23:08:44.829Z,4.77
2023-04-03T23:11:14.274Z,4.73
2023-04-03T23:13:43.594Z,4.67
2023-04-03T23:16:13.248Z,4.78
2023-04-03T23:18:43.885Z,4.72
2023-04-03T23:21:11.293Z,4.75
2023-04-03T23:23:40.683Z,4.86
2023-04-03T23:26:09.653Z,4.63
2023-04-03T23:28:37.070Z,4.70
2023-04-03T23:31:07.281Z,4.75
2023-04-03T23:33:34.677Z,4.79
2023-04-03T23:36:10.274Z,4.69
2023-04-03T23:38:39.811Z,4.57
2023-04-03T23:41:09.042Z,4.43
2023-04-03T23:43:36.176Z,4.39
2023-04-03T23:46:03.423Z,4.36
2023-04-03T23:48:33.113Z,4.24
2023-04-03T23:51:00.016Z,4.43
2023-04-03T23:53:29.649Z,4.24
2023-04-03T23:55:56.737Z,4.33
2023-04-03T23:58:23.798Z,4.50
